Pride Of Burgundy — MQSQ9 — position and weather

sailwx.info

Track history (hours):
 
Tides and Currents Weather Stations Pressure Air Temp Water Temp Dewpoint Dewpoint Depression Visibility Wind Speed Wind Dir Waves Ship Positions

Pride Of Burgundy

Operator: P & O Ferries

Last reported at 2017-Jun-23 17:01 UTC. Time now 2017-Jun-23 17:24 UTC.
Position N 51°06' E 001°27'.

Length 180 m; draft 6.2 m.

Type: Passenger vessel. MMSI: 232001470.

Date/timePositionNaut miles runAvg speedWind from/ knotsBaromVisibWave heightAir tempDewpointWater temp
2017-Jun-23 17:01N 51°06' E 001°27'1019.2
2017-Jun-23 16:30N 51°01' E 001°40'714.9
2017-Jun-23 16:00N 50°58' E 001°51'0 0.0
2017-Jun-23 15:30N 50°58' E 001°51'2 3.6
2017-Jun-23 15:00N 50°58' E 001°48'1817.8
2017-Jun-23 14:00N 51°06' E 001°23'2 4.1
2017-Jun-23 13:29N 51°07' E 001°20'0 0.0
2017-Jun-23 13:00N 51°07' E 001°20'510.8
2017-Jun-23 12:30N 51°05' E 001°28'918.1
2017-Jun-23 12:00N 51°00' E 001°40'714.4
2017-Jun-23 11:31N 50°58' E 001°51'0 0.4
2017-Jun-23 11:00N 50°58' E 001°51'0 0.0
2017-Jun-23 10:30N 50°58' E 001°51'816.7
2017-Jun-23 10:01N 50°60' E 001°38'1019.8
2017-Jun-23 09:30N 51°05' E 001°25'4 7.4
2017-Jun-23 09:00N 51°07' E 001°20'0 0.0
2017-Jun-23 08:30N 51°07' E 001°20'2 3.6
2017-Jun-23 08:00N 51°07' E 001°23'917.7
2017-Jun-23 07:30N 51°03' E 001°35'917.4
2017-Jun-23 07:00N 50°58' E 001°47'3 5.2
2017-Jun-23 06:31N 50°58' E 001°51'0 0.0
2017-Jun-23 06:00N 50°58' E 001°51'4 7.2
2017-Jun-23 05:31N 50°58' E 001°45'917.4
2017-Jun-23 05:00N 51°01' E 001°33'918.1
2017-Jun-23 04:31N 51°07' E 001°21'1 1.7
2017-Jun-23 04:00N 51°07' E 001°20'0 0.0
2017-Jun-23 03:30N 51°07' E 001°20'1 2.6
2017-Jun-23 03:00N 51°07' E 001°22'613.0
2017-Jun-23 02:30N 51°05' E 001°32'815.3
2017-Jun-23 02:00N 51°00' E 001°41'612.4
2017-Jun-23 01:30N 50°58' E 001°51'0 0.2
2017-Jun-23 01:00N 50°58' E 001°51'0 0.0
2017-Jun-23 00:31N 50°58' E 001°51'0 0.0
2017-Jun-23 00:00N 50°58' E 001°51'0 0.0
2017-Jun-22 23:30N 50°58' E 001°51'0 0.0
2017-Jun-22 23:01N 50°58' E 001°51'0 0.0
2017-Jun-22 22:31N 50°58' E 001°51'0 0.0
2017-Jun-22 22:01N 50°58' E 001°51'0 0.0
2017-Jun-22 21:31N 50°58' E 001°51'0 0.0
2017-Jun-22 21:00N 50°58' E 001°51'0 0.0
2017-Jun-22 20:31N 50°58' E 001°51'0 0.1
2017-Jun-22 20:01N 50°58' E 001°51'713.5
2017-Jun-22 19:31N 50°58' E 001°40'1019.2
2017-Jun-22 19:01N 51°04' E 001°28'611.5
2017-Jun-22 18:30N 51°07' E 001°20'0 0.0
2017-Jun-22 18:00N 51°07' E 001°20'0 0.4
2017-Jun-22 17:30N 51°07' E 001°20'917.9
2017-Jun-22 17:00N 51°03' E 001°33'1019.4
2017-Jun-22 16:30N 50°58' E 001°46'3 6.3
2017-Jun-22 16:01N 50°58' E 001°51'0 0.0
2017-Jun-22 15:30N 50°58' E 001°51'2 4.7
2017-Jun-22 15:01N 50°58' E 001°47'917.3
2017-Jun-22 14:31N 51°01' E 001°34'1110.8
2017-Jun-22 13:30N 51°07' E 001°20'0 0.0
2017-Jun-22 13:00N 51°07' E 001°20'3 5.5
2017-Jun-22 12:30N 51°07' E 001°24'918.8
2017-Jun-22 12:01N 51°02' E 001°37'917.1
2017-Jun-22 11:31N 50°58' E 001°49'1 2.0
2017-Jun-22 11:00N 50°58' E 001°51'0 0.0
2017-Jun-22 10:30N 50°58' E 001°51'714.2
2017-Jun-22 10:00N 50°59' E 001°40'1019.7
2017-Jun-22 09:30N 51°05' E 001°27'5 9.9
2017-Jun-22 09:00N 51°07' E 001°20'0 0.0
2017-Jun-22 08:30N 51°07' E 001°20'0 0.6
2017-Jun-22 07:59N 51°07' E 001°21'816.0
2017-Jun-22 07:30N 51°05' E 001°32'918.0
2017-Jun-22 07:01N 50°59' E 001°43'510.3
2017-Jun-22 06:31N 50°58' E 001°51'0 0.0
2017-Jun-22 06:01N 50°58' E 001°51'3 6.3
2017-Jun-22 05:31N 50°58' E 001°46'918.1
2017-Jun-22 05:01N 51°01' E 001°32'918.8
2017-Jun-22 04:30N 51°07' E 001°21'1 1.4
2017-Jun-22 04:01N 51°07' E 001°20'0 0.0
2017-Jun-22 03:30N 51°07' E 001°20'0 0.0
2017-Jun-22 02:59N 51°07' E 001°20'613.3
2017-Jun-22 02:30N 51°05' E 001°30'917.8
2017-Jun-22 02:01N 50°60' E 001°41'713.2
2017-Jun-22 01:30N 50°58' E 001°51'0 0.0
2017-Jun-22 01:00N 50°58' E 001°51'0 0.0
2017-Jun-22 00:30N 50°58' E 001°51'1 2.0
2017-Jun-22 00:00N 50°58' E 001°50'918.8
2017-Jun-21 23:30N 51°00' E 001°35'1019.1
2017-Jun-21 23:00N 51°06' E 001°23'2 4.5
2017-Jun-21 22:30N 51°07' E 001°20'0 0.4
2017-Jun-21 22:00N 51°07' E 001°20'817.0
2017-Jun-21 21:30N 51°04' E 001°32'917.8
2017-Jun-21 21:00N 50°59' E 001°44'4 8.9
2017-Jun-21 20:30N 50°58' E 001°51'0 0.0
2017-Jun-21 20:00N 50°58' E 001°51'1 1.7
2017-Jun-21 19:31N 50°58' E 001°50'816.7
2017-Jun-21 19:00N 51°01' E 001°37'1019.2
2017-Jun-21 18:30N 51°06' E 001°24'3 5.8
2017-Jun-21 18:00N 51°07' E 001°20'0 0.0
2017-Jun-21 17:30N 51°07' E 001°20'3 6.9
2017-Jun-21 17:00N 51°06' E 001°25'1019.9
2017-Jun-21 16:31N 51°01' E 001°38'816.5
2017-Jun-21 16:00N 50°58' E 001°51'0 0.4
2017-Jun-21 15:31N 50°58' E 001°51'0 0.5
2017-Jun-21 15:00N 50°58' E 001°51'816.1
2017-Jun-21 14:31N 50°59' E 001°38'1414.2
2017-Jun-21 13:30N 51°07' E 001°20'0 0.0
2017-Jun-21 13:00N 51°07' E 001°20'2 4.4
2017-Jun-21 12:31N 51°07' E 001°23'918.6
2017-Jun-21 12:00N 51°02' E 001°35'918.1
2017-Jun-21 11:31N 50°58' E 001°49'1 2.9
2017-Jun-21 11:00N 50°58' E 001°51'0 0.0
2017-Jun-21 10:31N 50°58' E 001°51'816.5
2017-Jun-21 10:00N 50°60' E 001°38'1020.0
2017-Jun-21 09:30N 51°05' E 001°25'4 7.4
2017-Jun-21 09:00N 51°07' E 001°20'0 0.0
2017-Jun-21 08:30N 51°07' E 001°20'5 9.8
2017-Jun-21 08:00N 51°07' E 001°28'918.2
2017-Jun-21 07:30N 51°01' E 001°39'815.6
2017-Jun-21 07:00N 50°58' E 001°51'1 1.1
2017-Jun-21 06:30N 50°58' E 001°52'0 0.0
2017-Jun-21 06:01N 50°58' E 001°52'3 5.3
2017-Jun-21 05:30N 50°58' E 001°47'918.0
2017-Jun-21 05:01N 51°01' E 001°34'1019.0
2017-Jun-21 04:30N 51°07' E 001°22'1 2.4
2017-Jun-21 03:59N 51°07' E 001°20'0 0.0
2017-Jun-21 03:29N 51°07' E 001°20'1 1.2
2017-Jun-21 03:01N 51°07' E 001°21'918.1
2017-Jun-21 02:30N 51°04' E 001°35'714.7
2017-Jun-21 02:00N 50°59' E 001°43'510.3
2017-Jun-21 01:30N 50°58' E 001°51'0 0.0
2017-Jun-21 01:00N 50°58' E 001°51'0 0.0
2017-Jun-21 00:30N 50°58' E 001°51'3 5.4
2017-Jun-21 00:01N 50°58' E 001°47'1019.1
2017-Jun-20 23:31N 51°01' E 001°32'1019.1
2017-Jun-20 23:00N 51°07' E 001°20'0 0.4
2017-Jun-20 22:30N 51°07' E 001°20'1 1.2
2017-Jun-20 22:00N 51°07' E 001°21'918.6
2017-Jun-20 21:31N 51°03' E 001°34'918.2
2017-Jun-20 21:00N 50°58' E 001°46'3 6.7
2017-Jun-20 20:30N 50°58' E 001°52'0 0.0
2017-Jun-20 20:00N 50°58' E 001°52'1 2.2
2017-Jun-20 19:30N 50°58' E 001°50'1019.4
2017-Jun-20 19:00N 51°01' E 001°35'1019.7
2017-Jun-20 18:30N 51°06' E 001°23'2 3.6
2017-Jun-20 18:00N 51°07' E 001°20'0 0.0
2017-Jun-20 17:30N 51°07' E 001°20'4 7.5
2017-Jun-20 17:00N 51°06' E 001°26'1019.3
2017-Jun-20 16:31N 50°60' E 001°37'917.3
2017-Jun-20 16:01N 50°58' E 001°51'0 0.4
2017-Jun-20 15:30N 50°58' E 001°51'1 2.6
2017-Jun-20 15:00N 50°58' E 001°49'817.0
2017-Jun-20 14:31N 50°59' E 001°36'1313.0
2017-Jun-20 13:30N 51°07' E 001°20'0 0.0
2017-Jun-20 13:00N 51°07' E 001°20'1 1.9
2017-Jun-20 12:30N 51°07' E 001°22'1019.6
2017-Jun-20 12:00N 51°03' E 001°36'918.9
2017-Jun-20 11:31N 50°58' E 001°49'1 3.0
2017-Jun-20 11:01N 50°58' E 001°51'0 0.0
2017-Jun-20 10:30N 50°58' E 001°51'714.4
2017-Jun-20 10:01N 50°59' E 001°40'1019.8
2017-Jun-20 09:30N 51°05' E 001°27'5 8.7
2017-Jun-20 08:57N 51°07' E 001°20'0 0.0
2017-Jun-20 08:30N 51°07' E 001°20'0 0.2
2017-Jun-20 08:00N 51°07' E 001°20'917.5
2017-Jun-20 07:30N 51°03' E 001°32'918.8
2017-Jun-20 07:00N 50°58' E 001°45'4 8.7
2017-Jun-20 06:30N 50°58' E 001°52'0 0.0
2017-Jun-20 06:00N 50°58' E 001°52'3 5.4
2017-Jun-20 05:31N 50°58' E 001°47'1817.7
2017-Jun-20 04:30N 51°06' E 001°22'2 3.6
2017-Jun-20 04:00N 51°07' E 001°20'0 0.0
2017-Jun-20 03:30N 51°07' E 001°20'3 6.4
2017-Jun-20 03:01N 51°07' E 001°25'715.0
2017-Jun-20 02:31N 51°03' E 001°35'816.4
2017-Jun-20 02:00N 50°58' E 001°46'3 6.5
2017-Jun-20 01:30N 50°58' E 001°51'0 0.0
2017-Jun-20 01:00N 50°58' E 001°51'0 0.0
2017-Jun-20 00:30N 50°58' E 001°51'2 3.1
2017-Jun-20 00:01N 50°58' E 001°49'917.1
2017-Jun-19 23:30N 50°58' E 001°35'1313.3
2017-Jun-19 22:30N 51°07' E 001°20'0 0.0
2017-Jun-19 22:00N 51°07' E 001°20'3 6.1
2017-Jun-19 21:30N 51°07' E 001°25'1020.0
2017-Jun-19 21:00N 51°01' E 001°38'816.8
2017-Jun-19 20:30N 50°58' E 001°51'0 0.7
2017-Jun-19 20:00N 50°58' E 001°51'0 0.1
2017-Jun-19 19:30N 50°58' E 001°51'816.0
2017-Jun-19 19:01N 50°59' E 001°38'1019.6
2017-Jun-19 18:30N 51°05' E 001°26'4 8.3
2017-Jun-19 17:59N 51°07' E 001°20'0 0.0
2017-Jun-19 17:30N 51°07' E 001°20'4 8.1
2017-Jun-19 17:01N 51°07' E 001°26'1019.2
2017-Jun-19 16:30N 51°01' E 001°39'816.3
2017-Jun-19 16:01N 50°58' E 001°51'0 0.4
2017-Jun-19 15:31N 50°58' E 001°51'0 0.3
2017-Jun-19 15:00N 50°58' E 001°51'1716.9
2017-Jun-19 14:01N 51°04' E 001°25'510.3
2017-Jun-19 13:31N 51°07' E 001°20'0 0.0
2017-Jun-19 12:49N 51°07' E 001°20'311.5
2017-Jun-19 12:31N 51°06' E 001°25'1020.2
2017-Jun-19 12:00N 51°01' E 001°39'816.2
2017-Jun-19 11:30N 50°58' E 001°51'0 0.1
2017-Jun-19 11:00N 50°58' E 001°51'0 0.0
2017-Jun-19 10:30N 50°58' E 001°51'612.7
2017-Jun-19 10:01N 50°59' E 001°41'1020.1
2017-Jun-19 09:30N 51°04' E 001°28'611.3
2017-Jun-19 09:00N 51°07' E 001°20'0 0.0
2017-Jun-19 08:31N 51°07' E 001°20'0 0.2
2017-Jun-19 07:59N 51°07' E 001°20'817.1
2017-Jun-19 07:31N 51°04' E 001°32'918.7
2017-Jun-19 07:01N 50°58' E 001°44'4 8.5
2017-Jun-19 06:31N 50°58' E 001°51'0 0.0
2017-Jun-19 06:01N 50°58' E 001°51'0 0.0
2017-Jun-19 05:31N 50°58' E 001°51'0 0.0
2017-Jun-19 05:00N 50°58' E 001°51'0 0.0
2017-Jun-19 04:31N 50°58' E 001°51'0 0.0
2017-Jun-19 04:01N 50°58' E 001°51'0 0.0
2017-Jun-19 03:31N 50°58' E 001°51'0 0.0
2017-Jun-19 03:01N 50°58' E 001°51'0 0.0
2017-Jun-19 02:31N 50°58' E 001°51'0 0.0
2017-Jun-19 02:00N 50°58' E 001°51'0 0.0
2017-Jun-19 01:31N 50°58' E 001°51'0 0.0
2017-Jun-19 01:00N 50°58' E 001°51'0 0.0
2017-Jun-19 00:31N 50°58' E 001°51'0 0.0
2017-Jun-19 00:01N 50°58' E 001°51'0 0.0
2017-Jun-18 23:30N 50°58' E 001°51'0 0.0
2017-Jun-18 23:01N 50°58' E 001°51'0 0.0
2017-Jun-18 22:31N 50°58' E 001°51'0 0.0
2017-Jun-18 22:01N 50°58' E 001°51'0 0.0
2017-Jun-18 21:30N 50°58' E 001°51'0 0.0
2017-Jun-18 21:01N 50°58' E 001°51'0 0.0
2017-Jun-18 20:31N 50°58' E 001°51'0 0.0
2017-Jun-18 20:01N 50°58' E 001°51'0 0.2
2017-Jun-18 19:30N 50°58' E 001°51'715.0
2017-Jun-18 19:00N 50°58' E 001°39'917.7
2017-Jun-18 18:30N 51°02' E 001°26'713.1
2017-Jun-18 17:59N 51°07' E 001°20'0 0.0
2017-Jun-18 17:28N 51°07' E 001°20'4 8.9
2017-Jun-18 17:00N 51°06' E 001°26'1019.8
2017-Jun-18 16:30N 51°01' E 001°40'815.2
2017-Jun-18 16:01N 50°58' E 001°51'0 0.2
2017-Jun-18 15:30N 50°58' E 001°51'0 0.1
2017-Jun-18 15:01N 50°58' E 001°51'1616.1
2017-Jun-18 14:00N 51°04' E 001°27'611.3
2017-Jun-18 13:30N 51°07' E 001°20'0 0.0
2017-Jun-18 13:00N 51°07' E 001°20'3 5.4
2017-Jun-18 12:30N 51°07' E 001°24'1019.8
2017-Jun-18 12:00N 51°01' E 001°37'918.1
2017-Jun-18 11:30N 50°58' E 001°51'0 0.4
2017-Jun-18 11:00N 50°58' E 001°51'0 0.0
2017-Jun-18 10:30N 50°58' E 001°51'714.1
2017-Jun-18 10:00N 50°58' E 001°40'1019.4
2017-Jun-18 09:31N 51°04' E 001°28'611.0
2017-Jun-18 09:00N 51°07' E 001°20'0 0.0
2017-Jun-18 08:30N 51°07' E 001°20'0 0.1
2017-Jun-18 08:00N 51°07' E 001°20'815.3
2017-Jun-18 07:30N 51°05' E 001°32'1019.1
2017-Jun-18 07:00N 50°59' E 001°44'5 9.6
2017-Jun-18 06:30N 50°58' E 001°51'0 0.0
2017-Jun-18 06:00N 50°58' E 001°51'0 0.0
2017-Jun-18 05:30N 50°58' E 001°51'0 0.0
2017-Jun-18 05:00N 50°58' E 001°51'0 0.0
2017-Jun-18 04:30N 50°58' E 001°51'0 0.0
2017-Jun-18 04:00N 50°58' E 001°51'0 0.0
2017-Jun-18 03:31N 50°58' E 001°51'0 0.0
2017-Jun-18 03:00N 50°58' E 001°51'0 0.3
2017-Jun-18 02:30N 50°58' E 001°51'0 0.0
2017-Jun-18 02:00N 50°58' E 001°51'0 0.0
2017-Jun-18 01:30N 50°58' E 001°51'0 0.0
2017-Jun-18 01:00N 50°58' E 001°51'0 0.0
2017-Jun-18 00:30N 50°58' E 001°51'0 0.0
2017-Jun-18 00:00N 50°58' E 001°51'0 0.0
2017-Jun-17 23:30N 50°58' E 001°51'0 0.0
2017-Jun-17 23:00N 50°58' E 001°51'0 0.0
2017-Jun-17 22:30N 50°58' E 001°51'0 0.0
2017-Jun-17 22:00N 50°58' E 001°51'0 0.0
2017-Jun-17 21:30N 50°58' E 001°51'0 0.0
2017-Jun-17 21:00N 50°58' E 001°51'0 0.0
2017-Jun-17 20:30N 50°58' E 001°51'0 0.0
2017-Jun-17 20:00N 50°58' E 001°51'0 0.5
2017-Jun-17 19:30N 50°58' E 001°51'815.2
2017-Jun-17 19:00N 50°59' E 001°39'816.5
2017-Jun-17 18:30N 51°04' E 001°29'612.1
2017-Jun-17 18:00N 51°07' E 001°20'0 0.0
2017-Jun-17 17:30N 51°07' E 001°20'4 8.2
2017-Jun-17 17:00N 51°06' E 001°26'1019.8
2017-Jun-17 16:30N 51°01' E 001°39'815.4
2017-Jun-17 16:00N 50°58' E 001°51'0 0.4
2017-Jun-17 15:30N 50°58' E 001°51'0 0.0
2017-Jun-17 15:01N 50°58' E 001°51'714.3
2017-Jun-17 14:30N 50°59' E 001°40'1515.0
2017-Jun-17 13:30N 51°07' E 001°20'0 0.0
2017-Jun-17 13:00N 51°07' E 001°20'3 6.0
2017-Jun-17 12:30N 51°06' E 001°25'1020.2
2017-Jun-17 12:00N 51°01' E 001°38'816.8
2017-Jun-17 11:30N 50°58' E 001°51'0 0.4
2017-Jun-17 11:00N 50°58' E 001°51'0 0.1
2017-Jun-17 10:30N 50°58' E 001°51'714.6
2017-Jun-17 10:00N 50°59' E 001°39'1019.6
2017-Jun-17 09:30N 51°04' E 001°26'5 9.8
2017-Jun-17 09:00N 51°07' E 001°20'0 0.0
2017-Jun-17 08:30N 51°07' E 001°20'0 0.1
2017-Jun-17 08:00N 51°07' E 001°20'715.1
2017-Jun-17 07:31N 51°04' E 001°31'1019.5
2017-Jun-17 07:00N 50°59' E 001°44'5 9.3
2017-Jun-17 06:30N 50°58' E 001°51'0 0.0
2017-Jun-17 06:00N 50°58' E 001°51'3 5.5
2017-Jun-17 05:30N 50°58' E 001°47'1020.0
2017-Jun-17 05:00N 51°02' E 001°32'918.1
2017-Jun-17 04:30N 51°07' E 001°20'0 0.0
2017-Jun-17 04:00N 51°07' E 001°20'0 0.0
2017-Jun-17 03:30N 51°07' E 001°20'4 7.5
2017-Jun-17 03:01N 51°07' E 001°26'815.7
2017-Jun-17 02:31N 51°02' E 001°36'815.9
2017-Jun-17 02:00N 50°58' E 001°47'3 5.1
2017-Jun-17 01:31N 50°58' E 001°51'0 0.0
2017-Jun-17 01:01N 50°58' E 001°51'0 0.0
2017-Jun-17 00:31N 50°58' E 001°51'0 0.0
2017-Jun-17 00:00N 50°58' E 001°51'0 0.0
2017-Jun-16 23:30N 50°58' E 001°51'0 0.0
2017-Jun-16 23:00N 50°58' E 001°51'0 0.0
2017-Jun-16 22:31N 50°58' E 001°51'0 0.0
2017-Jun-16 22:00N 50°58' E 001°51'0 0.0
2017-Jun-16 21:30N 50°58' E 001°51'0 0.0
2017-Jun-16 21:01N 50°58' E 001°51'0 0.0
2017-Jun-16 20:31N 50°58' E 001°51'0 0.0
2017-Jun-16 20:01N 50°58' E 001°51'0 1.0
2017-Jun-16 19:31N 50°58' E 001°50'917.0
2017-Jun-16 19:00N 50°59' E 001°37'917.2
2017-Jun-16 18:31N 51°05' E 001°26'5 9.3
2017-Jun-16 18:00N 51°07' E 001°20'0 0.0
2017-Jun-16 17:30N 51°07' E 001°20'3 6.7
2017-Jun-16 17:00N 51°06' E 001°25'1019.3
2017-Jun-16 16:31N 51°01' E 001°38'816.8
2017-Jun-16 16:00N 50°58' E 001°51'0 0.7
2017-Jun-16 15:30N 50°58' E 001°51'0 0.0
2017-Jun-16 15:00N 50°58' E 001°51'1717.5
2017-Jun-16 14:00N 51°06' E 001°26'4 8.1
2017-Jun-16 13:31N 51°07' E 001°20'0 0.0
2017-Jun-16 13:00N 51°07' E 001°20'3 6.5
2017-Jun-16 12:31N 51°07' E 001°25'1019.7
2017-Jun-16 12:01N 51°01' E 001°38'816.8
2017-Jun-16 11:31N 50°58' E 001°51'0 0.5
2017-Jun-16 11:00N 50°58' E 001°51'0 0.1
2017-Jun-16 10:30N 50°58' E 001°51'714.6
2017-Jun-16 10:00N 50°59' E 001°39'1019.5
2017-Jun-16 09:30N 51°04' E 001°26'5 9.9
2017-Jun-16 09:00N 51°07' E 001°20'0 0.0
2017-Jun-16 08:29N 51°07' E 001°20'0 0.1
2017-Jun-16 07:58N 51°07' E 001°20'613.9
2017-Jun-16 07:30N 51°05' E 001°29'1019.8
2017-Jun-16 07:00N 50°59' E 001°42'611.3
2017-Jun-16 06:31N 50°58' E 001°51'0 0.0
2017-Jun-16 06:00N 50°58' E 001°51'0 0.2
2017-Jun-16 05:31N 50°58' E 001°51'714.4
2017-Jun-16 05:00N 50°59' E 001°39'1019.6
2017-Jun-16 04:30N 51°05' E 001°27'510.2
2017-Jun-16 04:00N 51°07' E 001°20'0 0.0
2017-Jun-16 03:31N 51°07' E 001°20'0 0.2
2017-Jun-16 02:59N 51°07' E 001°20'510.5
2017-Jun-16 02:30N 51°06' E 001°28'918.7
2017-Jun-16 02:00N 51°01' E 001°40'715.0
2017-Jun-16 01:31N 50°58' E 001°51'0 0.4
2017-Jun-16 01:00N 50°58' E 001°51'0 0.0
2017-Jun-16 00:31N 50°58' E 001°51'5 9.2
2017-Jun-16 00:00N 50°58' E 001°44'1019.3
2017-Jun-15 23:31N 51°03' E 001°31'815.4
2017-Jun-15 23:00N 51°07' E 001°20'0 0.0
2017-Jun-15 22:31N 51°07' E 001°20'0 0.0
2017-Jun-15 22:00N 51°07' E 001°20'713.9
2017-Jun-15 21:30N 51°03' E 001°29'1019.1
2017-Jun-15 21:00N 50°59' E 001°43'510.6
2017-Jun-15 20:30N 50°58' E 001°51'0 0.0
2017-Jun-15 20:00N 50°58' E 001°51'5 9.6
2017-Jun-15 19:31N 50°58' E 001°43'1019.8
2017-Jun-15 19:01N 51°03' E 001°30'814.7
2017-Jun-15 18:30N 51°07' E 001°20'0 0.0
2017-Jun-15 17:59N 51°07' E 001°20'2 3.5
2017-Jun-15 17:31N 51°07' E 001°23'817.0
2017-Jun-15 17:00N 51°03' E 001°35'917.3
2017-Jun-15 16:31N 50°58' E 001°46'3 6.6
2017-Jun-15 16:00N 50°58' E 001°51'0 0.0
2017-Jun-15 15:31N 50°58' E 001°51'713.7
2017-Jun-15 15:00N 50°59' E 001°40'816.3
2017-Jun-15 14:30N 51°03' E 001°29'7 7.3
2017-Jun-15 13:30N 51°07' E 001°20'0 0.0
2017-Jun-15 12:59N 51°07' E 001°20'613.1
2017-Jun-15 12:31N 51°05' E 001°30'1019.6
2017-Jun-15 12:00N 50°59' E 001°42'611.8
2017-Jun-15 11:30N 50°58' E 001°51'0 0.0
2017-Jun-15 11:00N 50°58' E 001°51'1 2.5
2017-Jun-15 10:30N 50°58' E 001°49'816.8
2017-Jun-15 10:01N 50°59' E 001°36'1019.7
2017-Jun-15 09:31N 51°06' E 001°24'3 5.7
2017-Jun-15 08:59N 51°07' E 001°20'0 0.0
2017-Jun-15 08:29N 51°07' E 001°20'2 4.7
2017-Jun-15 08:01N 51°07' E 001°24'1019.6
2017-Jun-15 07:31N 51°01' E 001°37'918.5
2017-Jun-15 07:00N 50°58' E 001°50'0 0.9
2017-Jun-15 06:30N 50°58' E 001°51'0 0.0
2017-Jun-15 06:00N 50°58' E 001°51'5 9.3
2017-Jun-15 05:30N 50°58' E 001°44'1019.9
2017-Jun-15 05:00N 51°04' E 001°31'815.4
2017-Jun-15 04:30N 51°07' E 001°20'0 0.0
2017-Jun-15 04:00N 51°07' E 001°20'0 0.4
2017-Jun-15 03:16N 51°07' E 001°20'3 9.7
2017-Jun-15 03:01N 51°07' E 001°24'816.0
2017-Jun-15 02:30N 51°02' E 001°34'714.4
2017-Jun-15 02:00N 50°58' E 001°44'4 8.7
2017-Jun-15 01:30N 50°58' E 001°51'0 0.0
2017-Jun-15 01:00N 50°58' E 001°51'0 0.0
2017-Jun-15 00:30N 50°58' E 001°51'1 1.4
2017-Jun-15 00:00N 50°58' E 001°50'918.6
2017-Jun-14 23:30N 50°59' E 001°35'1019.9
2017-Jun-14 23:00N 51°05' E 001°23'3 5.6
2017-Jun-14 22:30N 51°07' E 001°20'0 0.0
2017-Jun-14 22:00N 51°07' E 001°20'713.3
2017-Jun-14 21:30N 51°04' E 001°29'1020.5
2017-Jun-14 21:00N 50°59' E 001°43'510.0
2017-Jun-14 20:30N 50°58' E 001°51'0 0.0
2017-Jun-14 20:00N 50°58' E 001°51'3 6.4
2017-Jun-14 19:31N 50°58' E 001°46'918.6
2017-Jun-14 19:01N 51°02' E 001°33'918.9
2017-Jun-14 18:30N 51°07' E 001°20'0 0.2
2017-Jun-14 18:00N 51°07' E 001°20'0 0.0
2017-Jun-14 17:30N 51°07' E 001°20'612.5
2017-Jun-14 17:01N 51°06' E 001°30'1019.2
2017-Jun-14 16:31N 51°00' E 001°42'612.2
2017-Jun-14 16:00N 50°58' E 001°51'0 0.0
2017-Jun-14 15:30N 50°58' E 001°51'1 2.2
2017-Jun-14 15:01N 50°58' E 001°49'1918.7
2017-Jun-14 14:01N 51°06' E 001°22'2 3.4
2017-Jun-14 13:30N 51°07' E 001°20'0 0.0
2017-Jun-14 13:00N 51°07' E 001°20'3 5.5
2017-Jun-14 12:30N 51°06' E 001°24'1020.1
2017-Jun-14 12:01N 51°01' E 001°38'917.5
2017-Jun-14 11:31N 50°58' E 001°51'0 0.4
2017-Jun-14 11:00N 50°58' E 001°51'0 0.1
2017-Jun-14 10:30N 50°58' E 001°51'714.2
2017-Jun-14 10:01N 50°58' E 001°40'1019.1
2017-Jun-14 09:31N 51°04' E 001°27'611.2
2017-Jun-14 08:59N 51°07' E 001°20'0 0.0
2017-Jun-14 08:25N 51°07' E 001°20'0 0.0
2017-Jun-14 08:00N 51°07' E 001°20'612.6
2017-Jun-14 07:30N 51°05' E 001°30'1020.2
2017-Jun-14 07:00N 50°59' E 001°42'611.1
2017-Jun-14 06:30N 50°58' E 001°51'0 0.0
2017-Jun-14 06:00N 50°58' E 001°51'1 2.5
2017-Jun-14 05:31N 50°58' E 001°49'918.8
2017-Jun-14 05:00N 51°00' E 001°35'1019.7
2017-Jun-14 04:31N 51°07' E 001°22'2 3.2
2017-Jun-14 04:00N 51°07' E 001°20'0 0.0
2017-Jun-14 03:30N 51°07' E 001°20'1 1.3
2017-Jun-14 03:00N 51°07' E 001°21'815.7
2017-Jun-14 02:31N 51°04' E 001°32'815.3
2017-Jun-14 02:00N 50°59' E 001°42'611.3
2017-Jun-14 01:30N 50°58' E 001°51'0 0.3
2017-Jun-14 01:00N 50°58' E 001°51'0 0.0
2017-Jun-14 00:30N 50°58' E 001°51'1 1.2
2017-Jun-14 00:01N 50°58' E 001°50'917.1
2017-Jun-13 23:30N 50°59' E 001°37'918.4
2017-Jun-13 23:01N 51°05' E 001°25'4 7.9
2017-Jun-13 22:30N 51°07' E 001°20'0 0.0
2017-Jun-13 22:00N 51°07' E 001°20'510.1
2017-Jun-13 21:31N 51°06' E 001°28'1020.2
2017-Jun-13 21:01N 50°60' E 001°40'713.7
2017-Jun-13 20:30N 50°58' E 001°51'0 0.0
2017-Jun-13 20:01N 50°58' E 001°51'1 2.7
2017-Jun-13 19:30N 50°58' E 001°49'917.7
2017-Jun-13 19:00N 51°00' E 001°35'1019.8
2017-Jun-13 18:30N 51°06' E 001°23'2 4.2
2017-Jun-13 18:00N 51°07' E 001°20'0 0.0
2017-Jun-13 17:30N 51°07' E 001°20'  
Track history (hours):
 
Tides and Currents Weather Stations Pressure Air Temp Water Temp Dewpoint Dewpoint Depression Visibility Wind Speed Wind Dir Waves Ship Positions

Pride Of Burgundy

Operator: P & O Ferries

Last reported at 2017-Jun-23 17:01 UTC. Time now 2017-Jun-23 17:24 UTC.
Position N 51°06' E 001°27'.

Length 180 m; draft 6.2 m.

Type: Passenger vessel. MMSI: 232001470.

Date/timePositionNaut miles runAvg speedWind from/ knotsBaromVisibWave heightAir tempDewpointWater temp
2017-Jun-23 17:01N 51°06' E 001°27'1019.2
2017-Jun-23 16:30N 51°01' E 001°40'714.9
2017-Jun-23 16:00N 50°58' E 001°51'0 0.0
2017-Jun-23 15:30N 50°58' E 001°51'2 3.6
2017-Jun-23 15:00N 50°58' E 001°48'1817.8
2017-Jun-23 14:00N 51°06' E 001°23'2 4.1
2017-Jun-23 13:29N 51°07' E 001°20'0 0.0
2017-Jun-23 13:00N 51°07' E 001°20'510.8
2017-Jun-23 12:30N 51°05' E 001°28'918.1
2017-Jun-23 12:00N 51°00' E 001°40'714.4
2017-Jun-23 11:31N 50°58' E 001°51'0 0.4
2017-Jun-23 11:00N 50°58' E 001°51'0 0.0
2017-Jun-23 10:30N 50°58' E 001°51'816.7
2017-Jun-23 10:01N 50°60' E 001°38'1019.8
2017-Jun-23 09:30N 51°05' E 001°25'4 7.4
2017-Jun-23 09:00N 51°07' E 001°20'0 0.0
2017-Jun-23 08:30N 51°07' E 001°20'2 3.6
2017-Jun-23 08:00N 51°07' E 001°23'917.7
2017-Jun-23 07:30N 51°03' E 001°35'917.4
2017-Jun-23 07:00N 50°58' E 001°47'3 5.2
2017-Jun-23 06:31N 50°58' E 001°51'0 0.0
2017-Jun-23 06:00N 50°58' E 001°51'4 7.2
2017-Jun-23 05:31N 50°58' E 001°45'917.4
2017-Jun-23 05:00N 51°01' E 001°33'918.1
2017-Jun-23 04:31N 51°07' E 001°21'1 1.7
2017-Jun-23 04:00N 51°07' E 001°20'0 0.0
2017-Jun-23 03:30N 51°07' E 001°20'1 2.6
2017-Jun-23 03:00N 51°07' E 001°22'613.0
2017-Jun-23 02:30N 51°05' E 001°32'815.3
2017-Jun-23 02:00N 51°00' E 001°41'612.4
2017-Jun-23 01:30N 50°58' E 001°51'0 0.2
2017-Jun-23 01:00N 50°58' E 001°51'0 0.0
2017-Jun-23 00:31N 50°58' E 001°51'0 0.0
2017-Jun-23 00:00N 50°58' E 001°51'0 0.0
2017-Jun-22 23:30N 50°58' E 001°51'0 0.0
2017-Jun-22 23:01N 50°58' E 001°51'0 0.0
2017-Jun-22 22:31N 50°58' E 001°51'0 0.0
2017-Jun-22 22:01N 50°58' E 001°51'0 0.0
2017-Jun-22 21:31N 50°58' E 001°51'0 0.0
2017-Jun-22 21:00N 50°58' E 001°51'0 0.0
2017-Jun-22 20:31N 50°58' E 001°51'0 0.1
2017-Jun-22 20:01N 50°58' E 001°51'713.5
2017-Jun-22 19:31N 50°58' E 001°40'1019.2
2017-Jun-22 19:01N 51°04' E 001°28'611.5
2017-Jun-22 18:30N 51°07' E 001°20'0 0.0
2017-Jun-22 18:00N 51°07' E 001°20'0 0.4
2017-Jun-22 17:30N 51°07' E 001°20'917.9
2017-Jun-22 17:00N 51°03' E 001°33'1019.4
2017-Jun-22 16:30N 50°58' E 001°46'3 6.3
2017-Jun-22 16:01N 50°58' E 001°51'0 0.0
2017-Jun-22 15:30N 50°58' E 001°51'2 4.7
2017-Jun-22 15:01N 50°58' E 001°47'917.3
2017-Jun-22 14:31N 51°01' E 001°34'1110.8
2017-Jun-22 13:30N 51°07' E 001°20'0 0.0
2017-Jun-22 13:00N 51°07' E 001°20'3 5.5
2017-Jun-22 12:30N 51°07' E 001°24'918.8
2017-Jun-22 12:01N 51°02' E 001°37'917.1
2017-Jun-22 11:31N 50°58' E 001°49'1 2.0
2017-Jun-22 11:00N 50°58' E 001°51'0 0.0
2017-Jun-22 10:30N 50°58' E 001°51'714.2
2017-Jun-22 10:00N 50°59' E 001°40'1019.7
2017-Jun-22 09:30N 51°05' E 001°27'5 9.9
2017-Jun-22 09:00N 51°07' E 001°20'0 0.0
2017-Jun-22 08:30N 51°07' E 001°20'0 0.6
2017-Jun-22 07:59N 51°07' E 001°21'816.0
2017-Jun-22 07:30N 51°05' E 001°32'918.0
2017-Jun-22 07:01N 50°59' E 001°43'510.3
2017-Jun-22 06:31N 50°58' E 001°51'0 0.0
2017-Jun-22 06:01N 50°58' E 001°51'3 6.3
2017-Jun-22 05:31N 50°58' E 001°46'918.1
2017-Jun-22 05:01N 51°01' E 001°32'918.8
2017-Jun-22 04:30N 51°07' E 001°21'1 1.4
2017-Jun-22 04:01N 51°07' E 001°20'0 0.0
2017-Jun-22 03:30N 51°07' E 001°20'0 0.0
2017-Jun-22 02:59N 51°07' E 001°20'613.3
2017-Jun-22 02:30N 51°05' E 001°30'917.8
2017-Jun-22 02:01N 50°60' E 001°41'713.2
2017-Jun-22 01:30N 50°58' E 001°51'0 0.0
2017-Jun-22 01:00N 50°58' E 001°51'0 0.0
2017-Jun-22 00:30N 50°58' E 001°51'1 2.0
2017-Jun-22 00:00N 50°58' E 001°50'918.8
2017-Jun-21 23:30N 51°00' E 001°35'1019.1
2017-Jun-21 23:00N 51°06' E 001°23'2 4.5
2017-Jun-21 22:30N 51°07' E 001°20'0 0.4
2017-Jun-21 22:00N 51°07' E 001°20'817.0
2017-Jun-21 21:30N 51°04' E 001°32'917.8
2017-Jun-21 21:00N 50°59' E 001°44'4 8.9
2017-Jun-21 20:30N 50°58' E 001°51'0 0.0
2017-Jun-21 20:00N 50°58' E 001°51'1 1.7
2017-Jun-21 19:31N 50°58' E 001°50'816.7
2017-Jun-21 19:00N 51°01' E 001°37'1019.2
2017-Jun-21 18:30N 51°06' E 001°24'3 5.8
2017-Jun-21 18:00N 51°07' E 001°20'0 0.0
2017-Jun-21 17:30N 51°07' E 001°20'3 6.9
2017-Jun-21 17:00N 51°06' E 001°25'1019.9
2017-Jun-21 16:31N 51°01' E 001°38'816.5
2017-Jun-21 16:00N 50°58' E 001°51'0 0.4
2017-Jun-21 15:31N 50°58' E 001°51'0 0.5
2017-Jun-21 15:00N 50°58' E 001°51'816.1
2017-Jun-21 14:31N 50°59' E 001°38'1414.2
2017-Jun-21 13:30N 51°07' E 001°20'0 0.0
2017-Jun-21 13:00N 51°07' E 001°20'2 4.4
2017-Jun-21 12:31N 51°07' E 001°23'918.6
2017-Jun-21 12:00N 51°02' E 001°35'918.1
2017-Jun-21 11:31N 50°58' E 001°49'1 2.9
2017-Jun-21 11:00N 50°58' E 001°51'0 0.0
2017-Jun-21 10:31N 50°58' E 001°51'816.5
2017-Jun-21 10:00N 50°60' E 001°38'1020.0
2017-Jun-21 09:30N 51°05' E 001°25'4 7.4
2017-Jun-21 09:00N 51°07' E 001°20'0 0.0
2017-Jun-21 08:30N 51°07' E 001°20'5 9.8
2017-Jun-21 08:00N 51°07' E 001°28'918.2
2017-Jun-21 07:30N 51°01' E 001°39'815.6
2017-Jun-21 07:00N 50°58' E 001°51'1 1.1
2017-Jun-21 06:30N 50°58' E 001°52'0 0.0
2017-Jun-21 06:01N 50°58' E 001°52'3 5.3
2017-Jun-21 05:30N 50°58' E 001°47'918.0
2017-Jun-21 05:01N 51°01' E 001°34'1019.0
2017-Jun-21 04:30N 51°07' E 001°22'1 2.4
2017-Jun-21 03:59N 51°07' E 001°20'0 0.0
2017-Jun-21 03:29N 51°07' E 001°20'1 1.2
2017-Jun-21 03:01N 51°07' E 001°21'918.1
2017-Jun-21 02:30N 51°04' E 001°35'714.7
2017-Jun-21 02:00N 50°59' E 001°43'510.3
2017-Jun-21 01:30N 50°58' E 001°51'0 0.0
2017-Jun-21 01:00N 50°58' E 001°51'0 0.0
2017-Jun-21 00:30N 50°58' E 001°51'3 5.4
2017-Jun-21 00:01N 50°58' E 001°47'1019.1
2017-Jun-20 23:31N 51°01' E 001°32'1019.1
2017-Jun-20 23:00N 51°07' E 001°20'0 0.4
2017-Jun-20 22:30N 51°07' E 001°20'1 1.2
2017-Jun-20 22:00N 51°07' E 001°21'918.6
2017-Jun-20 21:31N 51°03' E 001°34'918.2
2017-Jun-20 21:00N 50°58' E 001°46'3 6.7
2017-Jun-20 20:30N 50°58' E 001°52'0 0.0
2017-Jun-20 20:00N 50°58' E 001°52'1 2.2
2017-Jun-20 19:30N 50°58' E 001°50'1019.4
2017-Jun-20 19:00N 51°01' E 001°35'1019.7
2017-Jun-20 18:30N 51°06' E 001°23'2 3.6
2017-Jun-20 18:00N 51°07' E 001°20'0 0.0
2017-Jun-20 17:30N 51°07' E 001°20'4 7.5
2017-Jun-20 17:00N 51°06' E 001°26'1019.3
2017-Jun-20 16:31N 50°60' E 001°37'917.3
2017-Jun-20 16:01N 50°58' E 001°51'0 0.4
2017-Jun-20 15:30N 50°58' E 001°51'1 2.6
2017-Jun-20 15:00N 50°58' E 001°49'817.0
2017-Jun-20 14:31N 50°59' E 001°36'1313.0
2017-Jun-20 13:30N 51°07' E 001°20'0 0.0
2017-Jun-20 13:00N 51°07' E 001°20'1 1.9
2017-Jun-20 12:30N 51°07' E 001°22'1019.6
2017-Jun-20 12:00N 51°03' E 001°36'918.9
2017-Jun-20 11:31N 50°58' E 001°49'1 3.0
2017-Jun-20 11:01N 50°58' E 001°51'0 0.0
2017-Jun-20 10:30N 50°58' E 001°51'714.4
2017-Jun-20 10:01N 50°59' E 001°40'1019.8
2017-Jun-20 09:30N 51°05' E 001°27'5 8.7
2017-Jun-20 08:57N 51°07' E 001°20'0 0.0
2017-Jun-20 08:30N 51°07' E 001°20'0 0.2
2017-Jun-20 08:00N 51°07' E 001°20'917.5
2017-Jun-20 07:30N 51°03' E 001°32'918.8
2017-Jun-20 07:00N 50°58' E 001°45'4 8.7
2017-Jun-20 06:30N 50°58' E 001°52'0 0.0
2017-Jun-20 06:00N 50°58' E 001°52'3 5.4
2017-Jun-20 05:31N 50°58' E 001°47'1817.7
2017-Jun-20 04:30N 51°06' E 001°22'2 3.6
2017-Jun-20 04:00N 51°07' E 001°20'0 0.0
2017-Jun-20 03:30N 51°07' E 001°20'3 6.4
2017-Jun-20 03:01N 51°07' E 001°25'715.0
2017-Jun-20 02:31N 51°03' E 001°35'816.4
2017-Jun-20 02:00N 50°58' E 001°46'3 6.5
2017-Jun-20 01:30N 50°58' E 001°51'0 0.0
2017-Jun-20 01:00N 50°58' E 001°51'0 0.0
2017-Jun-20 00:30N 50°58' E 001°51'2 3.1
2017-Jun-20 00:01N 50°58' E 001°49'917.1
2017-Jun-19 23:30N 50°58' E 001°35'1313.3
2017-Jun-19 22:30N 51°07' E 001°20'0 0.0
2017-Jun-19 22:00N 51°07' E 001°20'3 6.1
2017-Jun-19 21:30N 51°07' E 001°25'1020.0
2017-Jun-19 21:00N 51°01' E 001°38'816.8
2017-Jun-19 20:30N 50°58' E 001°51'0 0.7
2017-Jun-19 20:00N 50°58' E 001°51'0 0.1
2017-Jun-19 19:30N 50°58' E 001°51'816.0
2017-Jun-19 19:01N 50°59' E 001°38'1019.6
2017-Jun-19 18:30N 51°05' E 001°26'4 8.3
2017-Jun-19 17:59N 51°07' E 001°20'0 0.0
2017-Jun-19 17:30N 51°07' E 001°20'4 8.1
2017-Jun-19 17:01N 51°07' E 001°26'1019.2
2017-Jun-19 16:30N 51°01' E 001°39'816.3
2017-Jun-19 16:01N 50°58' E 001°51'0 0.4
2017-Jun-19 15:31N 50°58' E 001°51'0 0.3
2017-Jun-19 15:00N 50°58' E 001°51'1716.9
2017-Jun-19 14:01N 51°04' E 001°25'510.3
2017-Jun-19 13:31N 51°07' E 001°20'0 0.0
2017-Jun-19 12:49N 51°07' E 001°20'311.5
2017-Jun-19 12:31N 51°06' E 001°25'1020.2
2017-Jun-19 12:00N 51°01' E 001°39'816.2
2017-Jun-19 11:30N 50°58' E 001°51'0 0.1
2017-Jun-19 11:00N 50°58' E 001°51'0 0.0
2017-Jun-19 10:30N 50°58' E 001°51'612.7
2017-Jun-19 10:01N 50°59' E 001°41'1020.1
2017-Jun-19 09:30N 51°04' E 001°28'611.3
2017-Jun-19 09:00N 51°07' E 001°20'0 0.0
2017-Jun-19 08:31N 51°07' E 001°20'0 0.2
2017-Jun-19 07:59N 51°07' E 001°20'817.1
2017-Jun-19 07:31N 51°04' E 001°32'918.7
2017-Jun-19 07:01N 50°58' E 001°44'4 8.5
2017-Jun-19 06:31N 50°58' E 001°51'0 0.0
2017-Jun-19 06:01N 50°58' E 001°51'0 0.0
2017-Jun-19 05:31N 50°58' E 001°51'0 0.0
2017-Jun-19 05:00N 50°58' E 001°51'0 0.0
2017-Jun-19 04:31N 50°58' E 001°51'0 0.0
2017-Jun-19 04:01N 50°58' E 001°51'0 0.0
2017-Jun-19 03:31N 50°58' E 001°51'0 0.0
2017-Jun-19 03:01N 50°58' E 001°51'0 0.0
2017-Jun-19 02:31N 50°58' E 001°51'0 0.0
2017-Jun-19 02:00N 50°58' E 001°51'0 0.0
2017-Jun-19 01:31N 50°58' E 001°51'0 0.0
2017-Jun-19 01:00N 50°58' E 001°51'0 0.0
2017-Jun-19 00:31N 50°58' E 001°51'0 0.0
2017-Jun-19 00:01N 50°58' E 001°51'0 0.0
2017-Jun-18 23:30N 50°58' E 001°51'0 0.0
2017-Jun-18 23:01N 50°58' E 001°51'0 0.0
2017-Jun-18 22:31N 50°58' E 001°51'0 0.0
2017-Jun-18 22:01N 50°58' E 001°51'0 0.0
2017-Jun-18 21:30N 50°58' E 001°51'0 0.0
2017-Jun-18 21:01N 50°58' E 001°51'0 0.0
2017-Jun-18 20:31N 50°58' E 001°51'0 0.0
2017-Jun-18 20:01N 50°58' E 001°51'0 0.2
2017-Jun-18 19:30N 50°58' E 001°51'715.0
2017-Jun-18 19:00N 50°58' E 001°39'917.7
2017-Jun-18 18:30N 51°02' E 001°26'713.1
2017-Jun-18 17:59N 51°07' E 001°20'0 0.0
2017-Jun-18 17:28N 51°07' E 001°20'4 8.9
2017-Jun-18 17:00N 51°06' E 001°26'1019.8
2017-Jun-18 16:30N 51°01' E 001°40'815.2
2017-Jun-18 16:01N 50°58' E 001°51'0 0.2
2017-Jun-18 15:30N 50°58' E 001°51'0 0.1
2017-Jun-18 15:01N 50°58' E 001°51'1616.1
2017-Jun-18 14:00N 51°04' E 001°27'611.3
2017-Jun-18 13:30N 51°07' E 001°20'0 0.0
2017-Jun-18 13:00N 51°07' E 001°20'3 5.4
2017-Jun-18 12:30N 51°07' E 001°24'1019.8
2017-Jun-18 12:00N 51°01' E 001°37'918.1
2017-Jun-18 11:30N 50°58' E 001°51'0 0.4
2017-Jun-18 11:00N 50°58' E 001°51'0 0.0
2017-Jun-18 10:30N 50°58' E 001°51'714.1
2017-Jun-18 10:00N 50°58' E 001°40'1019.4
2017-Jun-18 09:31N 51°04' E 001°28'611.0
2017-Jun-18 09:00N 51°07' E 001°20'0 0.0
2017-Jun-18 08:30N 51°07' E 001°20'0 0.1
2017-Jun-18 08:00N 51°07' E 001°20'815.3
2017-Jun-18 07:30N 51°05' E 001°32'1019.1
2017-Jun-18 07:00N 50°59' E 001°44'5 9.6
2017-Jun-18 06:30N 50°58' E 001°51'0 0.0
2017-Jun-18 06:00N 50°58' E 001°51'0 0.0
2017-Jun-18 05:30N 50°58' E 001°51'0 0.0
2017-Jun-18 05:00N 50°58' E 001°51'0 0.0
2017-Jun-18 04:30N 50°58' E 001°51'0 0.0
2017-Jun-18 04:00N 50°58' E 001°51'0 0.0
2017-Jun-18 03:31N 50°58' E 001°51'0 0.0
2017-Jun-18 03:00N 50°58' E 001°51'0 0.3
2017-Jun-18 02:30N 50°58' E 001°51'0 0.0
2017-Jun-18 02:00N 50°58' E 001°51'0 0.0
2017-Jun-18 01:30N 50°58' E 001°51'0 0.0
2017-Jun-18 01:00N 50°58' E 001°51'0 0.0
2017-Jun-18 00:30N 50°58' E 001°51'0 0.0
2017-Jun-18 00:00N 50°58' E 001°51'0 0.0
2017-Jun-17 23:30N 50°58' E 001°51'0 0.0
2017-Jun-17 23:00N 50°58' E 001°51'0 0.0
2017-Jun-17 22:30N 50°58' E 001°51'0 0.0
2017-Jun-17 22:00N 50°58' E 001°51'0 0.0
2017-Jun-17 21:30N 50°58' E 001°51'0 0.0
2017-Jun-17 21:00N 50°58' E 001°51'0 0.0
2017-Jun-17 20:30N 50°58' E 001°51'0 0.0
2017-Jun-17 20:00N 50°58' E 001°51'0 0.5
2017-Jun-17 19:30N 50°58' E 001°51'815.2
2017-Jun-17 19:00N 50°59' E 001°39'816.5
2017-Jun-17 18:30N 51°04' E 001°29'612.1
2017-Jun-17 18:00N 51°07' E 001°20'0 0.0
2017-Jun-17 17:30N 51°07' E 001°20'4 8.2
2017-Jun-17 17:00N 51°06' E 001°26'1019.8
2017-Jun-17 16:30N 51°01' E 001°39'815.4
2017-Jun-17 16:00N 50°58' E 001°51'0 0.4
2017-Jun-17 15:30N 50°58' E 001°51'0 0.0
2017-Jun-17 15:01N 50°58' E 001°51'714.3
2017-Jun-17 14:30N 50°59' E 001°40'1515.0
2017-Jun-17 13:30N 51°07' E 001°20'0 0.0
2017-Jun-17 13:00N 51°07' E 001°20'3 6.0
2017-Jun-17 12:30N 51°06' E 001°25'1020.2
2017-Jun-17 12:00N 51°01' E 001°38'816.8
2017-Jun-17 11:30N 50°58' E 001°51'0 0.4
2017-Jun-17 11:00N 50°58' E 001°51'0 0.1
2017-Jun-17 10:30N 50°58' E 001°51'714.6
2017-Jun-17 10:00N 50°59' E 001°39'1019.6
2017-Jun-17 09:30N 51°04' E 001°26'5 9.8
2017-Jun-17 09:00N 51°07' E 001°20'0 0.0
2017-Jun-17 08:30N 51°07' E 001°20'0 0.1
2017-Jun-17 08:00N 51°07' E 001°20'715.1
2017-Jun-17 07:31N 51°04' E 001°31'1019.5
2017-Jun-17 07:00N 50°59' E 001°44'5 9.3
2017-Jun-17 06:30N 50°58' E 001°51'0 0.0
2017-Jun-17 06:00N 50°58' E 001°51'3 5.5
2017-Jun-17 05:30N 50°58' E 001°47'1020.0
2017-Jun-17 05:00N 51°02' E 001°32'918.1
2017-Jun-17 04:30N 51°07' E 001°20'0 0.0
2017-Jun-17 04:00N 51°07' E 001°20'0 0.0
2017-Jun-17 03:30N 51°07' E 001°20'4 7.5
2017-Jun-17 03:01N 51°07' E 001°26'815.7
2017-Jun-17 02:31N 51°02' E 001°36'815.9
2017-Jun-17 02:00N 50°58' E 001°47'3 5.1
2017-Jun-17 01:31N 50°58' E 001°51'0 0.0
2017-Jun-17 01:01N 50°58' E 001°51'0 0.0
2017-Jun-17 00:31N 50°58' E 001°51'0 0.0
2017-Jun-17 00:00N 50°58' E 001°51'0 0.0
2017-Jun-16 23:30N 50°58' E 001°51'0 0.0
2017-Jun-16 23:00N 50°58' E 001°51'0 0.0
2017-Jun-16 22:31N 50°58' E 001°51'0 0.0
2017-Jun-16 22:00N 50°58' E 001°51'0 0.0
2017-Jun-16 21:30N 50°58' E 001°51'0 0.0
2017-Jun-16 21:01N 50°58' E 001°51'0 0.0
2017-Jun-16 20:31N 50°58' E 001°51'0 0.0
2017-Jun-16 20:01N 50°58' E 001°51'0 1.0
2017-Jun-16 19:31N 50°58' E 001°50'917.0
2017-Jun-16 19:00N 50°59' E 001°37'917.2
2017-Jun-16 18:31N 51°05' E 001°26'5 9.3
2017-Jun-16 18:00N 51°07' E 001°20'0 0.0
2017-Jun-16 17:30N 51°07' E 001°20'3 6.7
2017-Jun-16 17:00N 51°06' E 001°25'1019.3
2017-Jun-16 16:31N 51°01' E 001°38'816.8
2017-Jun-16 16:00N 50°58' E 001°51'0 0.7
2017-Jun-16 15:30N 50°58' E 001°51'0 0.0
2017-Jun-16 15:00N 50°58' E 001°51'1717.5
2017-Jun-16 14:00N 51°06' E 001°26'4 8.1
2017-Jun-16 13:31N 51°07' E 001°20'0 0.0
2017-Jun-16 13:00N 51°07' E 001°20'3 6.5
2017-Jun-16 12:31N 51°07' E 001°25'1019.7
2017-Jun-16 12:01N 51°01' E 001°38'816.8
2017-Jun-16 11:31N 50°58' E 001°51'0 0.5
2017-Jun-16 11:00N 50°58' E 001°51'0 0.1
2017-Jun-16 10:30N 50°58' E 001°51'714.6
2017-Jun-16 10:00N 50°59' E 001°39'1019.5
2017-Jun-16 09:30N 51°04' E 001°26'5 9.9
2017-Jun-16 09:00N 51°07' E 001°20'0 0.0
2017-Jun-16 08:29N 51°07' E 001°20'0 0.1
2017-Jun-16 07:58N 51°07' E 001°20'613.9
2017-Jun-16 07:30N 51°05' E 001°29'1019.8
2017-Jun-16 07:00N 50°59' E 001°42'611.3
2017-Jun-16 06:31N 50°58' E 001°51'0 0.0
2017-Jun-16 06:00N 50°58' E 001°51'0 0.2
2017-Jun-16 05:31N 50°58' E 001°51'714.4
2017-Jun-16 05:00N 50°59' E 001°39'1019.6
2017-Jun-16 04:30N 51°05' E 001°27'510.2
2017-Jun-16 04:00N 51°07' E 001°20'0 0.0
2017-Jun-16 03:31N 51°07' E 001°20'0 0.2
2017-Jun-16 02:59N 51°07' E 001°20'510.5
2017-Jun-16 02:30N 51°06' E 001°28'918.7
2017-Jun-16 02:00N 51°01' E 001°40'715.0
2017-Jun-16 01:31N 50°58' E 001°51'0 0.4
2017-Jun-16 01:00N 50°58' E 001°51'0 0.0
2017-Jun-16 00:31N 50°58' E 001°51'5 9.2
2017-Jun-16 00:00N 50°58' E 001°44'1019.3
2017-Jun-15 23:31N 51°03' E 001°31'815.4
2017-Jun-15 23:00N 51°07' E 001°20'0 0.0
2017-Jun-15 22:31N 51°07' E 001°20'0 0.0
2017-Jun-15 22:00N 51°07' E 001°20'713.9
2017-Jun-15 21:30N 51°03' E 001°29'1019.1
2017-Jun-15 21:00N 50°59' E 001°43'510.6
2017-Jun-15 20:30N 50°58' E 001°51'0 0.0
2017-Jun-15 20:00N 50°58' E 001°51'5 9.6
2017-Jun-15 19:31N 50°58' E 001°43'1019.8
2017-Jun-15 19:01N 51°03' E 001°30'814.7
2017-Jun-15 18:30N 51°07' E 001°20'0 0.0
2017-Jun-15 17:59N 51°07' E 001°20'2 3.5
2017-Jun-15 17:31N 51°07' E 001°23'817.0
2017-Jun-15 17:00N 51°03' E 001°35'917.3
2017-Jun-15 16:31N 50°58' E 001°46'3 6.6
2017-Jun-15 16:00N 50°58' E 001°51'0 0.0
2017-Jun-15 15:31N 50°58' E 001°51'713.7
2017-Jun-15 15:00N 50°59' E 001°40'816.3
2017-Jun-15 14:30N 51°03' E 001°29'7 7.3
2017-Jun-15 13:30N 51°07' E 001°20'0 0.0
2017-Jun-15 12:59N 51°07' E 001°20'613.1
2017-Jun-15 12:31N 51°05' E 001°30'1019.6
2017-Jun-15 12:00N 50°59' E 001°42'611.8
2017-Jun-15 11:30N 50°58' E 001°51'0 0.0
2017-Jun-15 11:00N 50°58' E 001°51'1 2.5
2017-Jun-15 10:30N 50°58' E 001°49'816.8
2017-Jun-15 10:01N 50°59' E 001°36'1019.7
2017-Jun-15 09:31N 51°06' E 001°24'3 5.7
2017-Jun-15 08:59N 51°07' E 001°20'0 0.0
2017-Jun-15 08:29N 51°07' E 001°20'2 4.7
2017-Jun-15 08:01N 51°07' E 001°24'1019.6
2017-Jun-15 07:31N 51°01' E 001°37'918.5
2017-Jun-15 07:00N 50°58' E 001°50'0 0.9
2017-Jun-15 06:30N 50°58' E 001°51'0 0.0
2017-Jun-15 06:00N 50°58' E 001°51'5 9.3
2017-Jun-15 05:30N 50°58' E 001°44'1019.9
2017-Jun-15 05:00N 51°04' E 001°31'815.4
2017-Jun-15 04:30N 51°07' E 001°20'0 0.0
2017-Jun-15 04:00N 51°07' E 001°20'0 0.4
2017-Jun-15 03:16N 51°07' E 001°20'3 9.7
2017-Jun-15 03:01N 51°07' E 001°24'816.0
2017-Jun-15 02:30N 51°02' E 001°34'714.4
2017-Jun-15 02:00N 50°58' E 001°44'4 8.7
2017-Jun-15 01:30N 50°58' E 001°51'0 0.0
2017-Jun-15 01:00N 50°58' E 001°51'0 0.0
2017-Jun-15 00:30N 50°58' E 001°51'1 1.4
2017-Jun-15 00:00N 50°58' E 001°50'918.6
2017-Jun-14 23:30N 50°59' E 001°35'1019.9
2017-Jun-14 23:00N 51°05' E 001°23'3 5.6
2017-Jun-14 22:30N 51°07' E 001°20'0 0.0
2017-Jun-14 22:00N 51°07' E 001°20'713.3
2017-Jun-14 21:30N 51°04' E 001°29'1020.5
2017-Jun-14 21:00N 50°59' E 001°43'510.0
2017-Jun-14 20:30N 50°58' E 001°51'0 0.0
2017-Jun-14 20:00N 50°58' E 001°51'3 6.4
2017-Jun-14 19:31N 50°58' E 001°46'918.6
2017-Jun-14 19:01N 51°02' E 001°33'918.9
2017-Jun-14 18:30N 51°07' E 001°20'0 0.2
2017-Jun-14 18:00N 51°07' E 001°20'0 0.0
2017-Jun-14 17:30N 51°07' E 001°20'612.5
2017-Jun-14 17:01N 51°06' E 001°30'1019.2
2017-Jun-14 16:31N 51°00' E 001°42'612.2
2017-Jun-14 16:00N 50°58' E 001°51'0 0.0
2017-Jun-14 15:30N 50°58' E 001°51'1 2.2
2017-Jun-14 15:01N 50°58' E 001°49'1918.7
2017-Jun-14 14:01N 51°06' E 001°22'2 3.4
2017-Jun-14 13:30N 51°07' E 001°20'0 0.0
2017-Jun-14 13:00N 51°07' E 001°20'3 5.5
2017-Jun-14 12:30N 51°06' E 001°24'1020.1
2017-Jun-14 12:01N 51°01' E 001°38'917.5
2017-Jun-14 11:31N 50°58' E 001°51'0 0.4
2017-Jun-14 11:00N 50°58' E 001°51'0 0.1
2017-Jun-14 10:30N 50°58' E 001°51'714.2
2017-Jun-14 10:01N 50°58' E 001°40'1019.1
2017-Jun-14 09:31N 51°04' E 001°27'611.2
2017-Jun-14 08:59N 51°07' E 001°20'0 0.0
2017-Jun-14 08:25N 51°07' E 001°20'0 0.0
2017-Jun-14 08:00N 51°07' E 001°20'612.6
2017-Jun-14 07:30N 51°05' E 001°30'1020.2
2017-Jun-14 07:00N 50°59' E 001°42'611.1
2017-Jun-14 06:30N 50°58' E 001°51'0 0.0
2017-Jun-14 06:00N 50°58' E 001°51'1 2.5
2017-Jun-14 05:31N 50°58' E 001°49'918.8
2017-Jun-14 05:00N 51°00' E 001°35'1019.7
2017-Jun-14 04:31N 51°07' E 001°22'2 3.2
2017-Jun-14 04:00N 51°07' E 001°20'0 0.0
2017-Jun-14 03:30N 51°07' E 001°20'1 1.3
2017-Jun-14 03:00N 51°07' E 001°21'815.7
2017-Jun-14 02:31N 51°04' E 001°32'815.3
2017-Jun-14 02:00N 50°59' E 001°42'611.3
2017-Jun-14 01:30N 50°58' E 001°51'0 0.3
2017-Jun-14 01:00N 50°58' E 001°51'0 0.0
2017-Jun-14 00:30N 50°58' E 001°51'1 1.2
2017-Jun-14 00:01N 50°58' E 001°50'917.1
2017-Jun-13 23:30N 50°59' E 001°37'918.4
2017-Jun-13 23:01N 51°05' E 001°25'4 7.9
2017-Jun-13 22:30N 51°07' E 001°20'0 0.0
2017-Jun-13 22:00N 51°07' E 001°20'510.1
2017-Jun-13 21:31N 51°06' E 001°28'1020.2
2017-Jun-13 21:01N 50°60' E 001°40'713.7
2017-Jun-13 20:30N 50°58' E 001°51'0 0.0
2017-Jun-13 20:01N 50°58' E 001°51'1 2.7
2017-Jun-13 19:30N 50°58' E 001°49'917.7
2017-Jun-13 19:00N 51°00' E 001°35'1019.8
2017-Jun-13 18:30N 51°06' E 001°23'2 4.2
2017-Jun-13 18:00N 51°07' E 001°20'0 0.0
2017-Jun-13 17:30N 51°07' E 001°20'  

Dump ship's entire track history